Sunday, July 22, 2018, 10:30 AM EDT
Back to Local

KBVY, Beverly Municipal Airport

Location: Danvers, MA, United States Lat: 42.583
Local Time: 10:30 AM EDT (14:30 GMT) Lon: -70.917
Time Zone: US/Eastern Elev: 108 ft

Show me the last for .
Show Decoded

2018-07-22 10:07 METAR KBVY 221407Z 13011KT 3SM -RA BR OVC002 22/22 A3008 RMK AO2 RAB1358 P0000
                 T02170217 =
2018-07-22 09:53 METAR KBVY 221353Z 11010KT 1 1/4SM BR OVC002 22/21 A3007 RMK AO2 SLP177
                 T02170211 =
2018-07-22 08:53 METAR KBVY 221253Z 10010KT 1 1/2SM BR OVC003 21/21 A3008 RMK AO2 RAE12 SLP179
                 P0004 T02110206 =
2018-07-22 08:22 METAR KBVY 221222Z 09008G14KT 1 3/4SM BR OVC004 21/20 A3008 RMK AO2 RAE12 P0004
                 T02060200 =
2018-07-22 08:09 METAR KBVY 221209Z 08008KT 3SM -RA BR OVC003 21/20 A3008 RMK AO2 P0004 T02060200
                 =
2018-07-22 07:53 METAR KBVY 221153Z 08008KT 1 3/4SM -RA BR OVC002 20/20 A3007 RMK AO2 RAB39
                 SLP178 P0001 60005 70005 T02000200 10200 20178 58004 =
2018-07-22 07:18 METAR KBVY 221118Z 07007G16KT 1SM BR OVC003 20/19 A3008 RMK AO2 T02000194 =
2018-07-22 07:06 METAR KBVY 221106Z 06005KT 3/4SM BR OVC004 19/19 A3008 RMK AO2 T01940194 =
2018-07-22 06:53 METAR KBVY 221053Z 08007KT 1SM BR OVC004 19/19 A3008 RMK AO2 RAE24 SLP181 P0002
                 T01940189 =
2018-07-22 06:43 METAR KBVY 221043Z AUTO 07006KT 3/4SM BR OVC004 19/19 A3008 RMK AO2 RAE24 P0002
                 T01940189 =
2018-07-22 06:34 METAR KBVY 221034Z AUTO 07005KT 1SM BR OVC005 19/19 A3008 RMK AO2 RAE24 P0001
                 T01940189 =
2018-07-22 06:00 METAR KBVY 221000Z AUTO 06006KT 2 1/2SM -RA BR OVC008 19/18 A3008 RMK AO2 VIS
                 2V3 P0000 T01940183 =
2018-07-22 05:53 METAR KBVY 220953Z AUTO 07006KT 3SM -RA BR OVC008 19/18 A3008 RMK AO2 RAB32
                 SLP181 P0002 T01940178 =
2018-07-22 05:26 METAR KBVY 220926Z AUTO 06006KT 10SM OVC009 19/18 A3008 RMK AO2 T01940178 =
2018-07-22 04:53 METAR KBVY 220853Z AUTO 07005KT 10SM OVC014 19/17 A3009 RMK AO2 SLP182 T01890172
                 56004 =
2018-07-22 04:46 METAR KBVY 220846Z AUTO 07005KT 10SM OVC014 19/17 A3009 RMK AO2 T01890172 =
2018-07-22 04:24 METAR KBVY 220824Z AUTO 07004KT 10SM FEW011 BKN016 OVC065 19/17 A3009 RMK AO2
                 T01890172 =
2018-07-22 04:10 METAR KBVY 220810Z AUTO 06004KT 10SM SCT011 OVC070 19/17 A3009 RMK AO2 T01890172
                 =
2018-07-22 04:02 METAR KBVY 220802Z AUTO 07004KT 10SM BKN010 BKN070 19/17 A3009 RMK AO2 T01890172
                 =
2018-07-22 03:53 METAR KBVY 220753Z AUTO 06005KT 10SM SCT010 BKN075 BKN090 18/17 A3009 RMK AO2
                 SLP184 T01830172 =
2018-07-22 02:53 METAR KBVY 220653Z AUTO 07004KT 10SM OVC085 18/17 A3009 RMK AO2 SLP184 T01830167
                 =
2018-07-22 01:53 METAR KBVY 220553Z AUTO 06004KT 10SM FEW012 BKN090 18/16 A3010 RMK AO2 SLP187
                 T01780161 10189 20178 56010 =
2018-07-22 01:37 METAR KBVY 220537Z AUTO 05004KT 10SM SCT013 BKN085 18/16 A3010 RMK AO2 T01780161
                 =
2018-07-22 00:53 METAR KBVY 220453Z AUTO 08005KT 10SM BKN014 18/16 A3010 RMK AO2 SLP189 T01780161
                 402390128 =
2018-07-22 00:40 METAR KBVY 220440Z AUTO 07003KT 10SM BKN015 18/16 A3010 RMK AO2 T01780161 =
2018-07-21 23:53 METAR KBVY 220353Z AUTO 05003KT 10SM FEW016 18/16 A3012 RMK AO2 SLP193 T01830156
                 =
2018-07-21 22:53 METAR KBVY 220253Z AUTO 08004KT 10SM CLR 18/16 A3013 RMK AO2 SLP197 T01830156
                 58002 =
2018-07-21 22:14 METAR KBVY 220214Z AUTO 09005KT 10SM SCT019 OVC055 19/16 A3013 RMK AO2 T01890156
                 =
2018-07-21 21:53 METAR KBVY 220153Z AUTO 09008KT 10SM BKN019 19/16 A3014 RMK AO2 SLP201 T01890156
                 =
2018-07-21 21:31 METAR KBVY 220131Z AUTO 10005KT 10SM BKN021 19/16 A3014 RMK AO2 T01890156 =
2018-07-21 21:17 METAR KBVY 220117Z AUTO 09007KT 10SM SCT023 19/16 A3014 RMK AO2 T01890156 =
2018-07-21 20:53 METAR KBVY 220053Z 08007KT 10SM BKN021 19/16 A3014 RMK AO2 SLP201 T01890161 =
2018-07-21 20:28 METAR KBVY 220028Z 10006KT 10SM BKN020 19/16 A3014 RMK AO2 T01940161 =
2018-07-21 19:53 METAR KBVY 212353Z 10004KT 10SM SCT026 19/16 A3014 RMK AO2 SLP199 T01940161
                 10228 20194 51005 =
2018-07-21 19:37 METAR KBVY 212337Z 11007KT 10SM SCT026 20/16 A3014 RMK AO2 T02000161 =
2018-07-21 18:53 METAR KBVY 212253Z 10011KT 10SM BKN024 21/16 A3014 RMK AO2 SLP199 T02060161 =
2018-07-21 18:15 METAR KBVY 212215Z 10010KT 10SM BKN023 21/16 A3013 RMK AO2 T02060161 =
2018-07-21 17:53 METAR KBVY 212153Z 12009KT 10SM SCT025 21/16 A3013 RMK AO2 SLP198 T02060156 =
2018-07-21 17:05 METAR KBVY 212105Z 12010KT 10SM BKN022 22/16 A3012 RMK AO2 T02170161 =
2018-07-21 16:53 METAR KBVY 212053Z 12010KT 10SM SCT022 22/16 A3012 RMK AO2 SLP194 T02170161
                 58012 =
2018-07-21 15:53 METAR KBVY 211953Z 11007KT 10SM FEW021 23/17 A3014 RMK AO2 SLP200 T02280167 =
2018-07-21 14:53 METAR KBVY 211853Z 13011KT 10SM FEW021 23/17 A3015 RMK AO2 SLP204 T02280167 =
2018-07-21 13:53 METAR KBVY 211753Z 10011KT 10SM CLR 23/17 A3016 RMK AO2 SLP206 T02280172 10239
                 20200 58006 =
2018-07-21 12:53 METAR KBVY 211653Z 12007KT 10SM FEW040 24/16 A3016 RMK AO2 SLP208 T02390161 =
2018-07-21 11:53 METAR KBVY 211553Z 15007KT 10SM CLR 23/16 A3017 RMK AO2 SLP212 T02280156 =
2018-07-21 10:53 METAR KBVY 211453Z 13007KT 10SM CLR 23/11 A3018 RMK AO2 SLP213 T02280111 51005 =

Support USWX by starting your Amazon purchase here.